Voyager — WDH2686 — position and weather

sailwx.info

Track history (hours):
 
Tides and Currents Weather Stations Pressure Air Temp Water Temp Dewpoint Dewpoint Depression Visibility Wind Speed Wind Dir Waves Ship Positions

Voyager

Owner: C & R Fishing LLC, New Bedford, MA. More information available from US FCC via Universal Licensing System and Coast Guard Vessel Documentation Center.

Last reported at 2017-Dec-09 10:30 UTC. Time now 2018-Feb-21 09:45 UTC.
Position N 42°23' W 071°03'.
Warning: this ship's position is months out of date.

MMSI: 367600150.

Date/timePositionNaut miles runAvg speedWind from/ knotsBaromVisibWave heightAir tempDewpointWater temp
2017-Dec-09 10:30N 42°23' W 071°03'2 3.5
2017-Dec-09 10:00N 42°21' W 071°02'2 3.1
2017-Dec-09 09:30N 42°21' W 071°01'3 5.3
2017-Dec-09 08:56N 42°21' W 070°56'3 7.6
2017-Dec-09 08:30N 42°23' W 070°54'4 7.8
2017-Dec-09 08:00N 42°24' W 070°49'4 8.2
2017-Dec-09 07:30N 42°22' W 070°44'4 8.3
2017-Dec-09 07:00N 42°20' W 070°39'4 7.8
2017-Dec-09 06:30N 42°17' W 070°35'  
Track history (hours):
 
Tides and Currents Weather Stations Pressure Air Temp Water Temp Dewpoint Dewpoint Depression Visibility Wind Speed Wind Dir Waves Ship Positions

Voyager

Owner: C & R Fishing LLC, New Bedford, MA. More information available from US FCC via Universal Licensing System and Coast Guard Vessel Documentation Center.

Last reported at 2017-Dec-09 10:30 UTC. Time now 2018-Feb-21 09:45 UTC.
Position N 42°23' W 071°03'.
Warning: this ship's position is months out of date.

MMSI: 367600150.

Date/timePositionNaut miles runAvg speedWind from/ knotsBaromVisibWave heightAir tempDewpointWater temp
2017-Dec-09 10:30N 42°23' W 071°03'2 3.5
2017-Dec-09 10:00N 42°21' W 071°02'2 3.1
2017-Dec-09 09:30N 42°21' W 071°01'3 5.3
2017-Dec-09 08:56N 42°21' W 070°56'3 7.6
2017-Dec-09 08:30N 42°23' W 070°54'4 7.8
2017-Dec-09 08:00N 42°24' W 070°49'4 8.2
2017-Dec-09 07:30N 42°22' W 070°44'4 8.3
2017-Dec-09 07:00N 42°20' W 070°39'4 7.8
2017-Dec-09 06:30N 42°17' W 070°35'  

Dump ship's entire track history